Time;durP1;ratioP1;P1;durP2;ratioP2;P2;SDS_P1;SDS_P2;PMS_P1;PMS_P2;Temp;Humidity;BMP_temperature;BMP_pressure;BME280_temperature;BME280_humidity;BME280_pressure;Samples;Min_cycle;Max_cycle;Signal;HPM_P1;HPM_P2
2022/11/14 00:00:14;;;;;;;45.80;21.00;;;;;;;6.36;84.39;101042.35;210857;1291;141518;-68
2022/11/14 00:05:41;;;;;;;48.80;25.10;;;;;;;6.30;84.29;101041.30;210821;1292;141050;-66
2022/11/14 00:10:49;;;;;;;45.20;20.50;;;;;;;6.29;84.47;101034.91;210914;1293;140877;-68
2022/11/14 00:15:53;;;;;;;54.00;25.30;;;;;;;6.27;84.28;101035.98;210838;1291;141960;-71
2022/11/14 00:20:56;;;;;;;49.30;23.40;;;;;;;6.23;84.42;101031.01;210721;1292;140622;-72
2022/11/14 00:26:00;;;;;;;43.70;20.20;;;;;;;6.21;84.53;101032.67;210772;1292;140773;-71
2022/11/14 00:31:03;;;;;;;50.00;23.30;;;;;;;6.22;84.51;101032.34;210721;1292;141734;-71
2022/11/14 00:36:07;;;;;;;48.30;22.00;;;;;;;6.20;84.63;101033.46;210811;1282;141501;-69
2022/11/14 00:41:11;;;;;;;56.20;23.00;;;;;;;6.18;84.68;101037.58;210823;1294;141206;-66
2022/11/14 00:46:15;;;;;;;36.70;18.10;;;;;;;6.15;84.84;101025.98;210853;1296;141622;-69
2022/11/14 00:51:18;;;;;;;44.80;24.30;;;;;;;6.14;84.92;101017.73;210827;1293;152565;-68
2022/11/14 00:56:22;;;;;;;48.70;21.80;;;;;;;6.10;84.91;101016.13;210714;1288;142421;-68
2022/11/14 01:01:26;;;;;;;45.70;22.20;;;;;;;6.04;84.92;101008.29;210090;1295;141046;-68
2022/11/14 01:06:29;;;;;;;45.50;21.70;;;;;;;6.05;85.23;101006.30;210576;1292;141202;-68
2022/11/14 01:11:33;;;;;;;46.60;22.60;;;;;;;6.04;85.00;100999.82;209893;1292;141836;-68
2022/11/14 01:16:36;;;;;;;43.30;23.50;;;;;;;6.01;85.14;100991.00;209180;1292;141753;-69
2022/11/14 01:21:40;;;;;;;48.50;21.90;;;;;;;6.02;85.39;100988.61;210559;1293;141114;-67
2022/11/14 01:26:44;;;;;;;40.40;19.20;;;;;;;5.98;85.03;100978.45;210721;1292;140544;-65
2022/11/14 01:31:48;;;;;;;50.10;24.90;;;;;;;5.96;85.11;100971.27;210253;1298;140864;-67
2022/11/14 01:36:51;;;;;;;44.50;20.70;;;;;;;5.93;85.32;100962.91;210599;1289;142063;-66
2022/11/14 01:41:54;;;;;;;38.20;21.20;;;;;;;5.93;85.36;100964.08;210457;1292;142383;-67
2022/11/14 01:46:57;;;;;;;47.40;22.60;;;;;;;5.94;85.43;100958.48;210759;1292;140497;-66
2022/11/14 01:52:08;;;;;;;37.70;17.10;;;;;;;5.94;85.22;100949.58;210440;1291;141200;-70
2022/11/14 01:57:16;;;;;;;44.90;19.90;;;;;;;5.92;85.49;100936.66;210711;1292;143311;-69
2022/11/14 02:02:23;;;;;;;50.10;24.20;;;;;;;5.87;85.59;100938.22;210839;1292;142175;-69
2022/11/14 02:07:31;;;;;;;53.70;27.30;;;;;;;5.84;85.77;100936.18;210835;1288;141381;-72
2022/11/14 02:12:35;;;;;;;42.90;22.50;;;;;;;5.79;86.04;100927.92;210693;1292;141403;-68
2022/11/14 02:17:39;;;;;;;47.20;21.00;;;;;;;5.74;86.23;100923.85;210867;1292;142295;-68
2022/11/14 02:22:42;;;;;;;46.00;23.40;;;;;;;5.72;86.31;100919.91;210811;1298;140937;-68
2022/11/14 02:27:46;;;;;;;47.80;24.20;;;;;;;5.75;86.10;100903.61;210660;1292;142058;-68
2022/11/14 02:32:49;;;;;;;49.00;19.50;;;;;;;5.72;86.31;100904.27;210669;1285;143425;-69
2022/11/14 02:38:13;;;;;;;50.10;22.30;;;;;;;5.75;86.37;100904.90;210651;1292;140882;-69
2022/11/14 02:43:17;;;;;;;42.20;19.90;;;;;;;5.79;86.36;100899.45;210769;1292;142003;-68
2022/11/14 02:48:20;;;;;;;53.50;25.40;;;;;;;5.82;86.19;100905.33;210696;1292;140530;-68
2022/11/14 02:53:23;;;;;;;46.30;24.50;;;;;;;5.79;85.97;100906.92;210883;1292;142327;-68
2022/11/14 02:58:27;;;;;;;54.80;20.80;;;;;;;5.81;86.28;100903.81;210985;1282;140348;-69
2022/11/14 03:03:31;;;;;;;44.70;19.60;;;;;;;5.81;86.22;100899.46;210676;1282;140433;-72
2022/11/14 03:08:34;;;;;;;43.80;18.70;;;;;;;5.74;86.35;100899.80;210767;1293;140370;-70
2022/11/14 03:13:38;;;;;;;49.90;23.50;;;;;;;5.72;86.34;100890.65;210533;1292;141336;-71
2022/11/14 03:18:42;;;;;;;45.10;20.60;;;;;;;5.68;86.80;100891.16;210996;1289;141821;-68
2022/11/14 03:23:46;;;;;;;37.90;19.00;;;;;;;5.65;86.67;100887.68;208904;1295;141213;-69
2022/11/14 03:28:49;;;;;;;49.60;21.00;;;;;;;5.61;86.70;100880.56;210868;1298;140983;-68
2022/11/14 03:33:53;;;;;;;52.80;22.50;;;;;;;5.56;86.73;100872.29;210937;1292;140467;-71
2022/11/14 03:38:57;;;;;;;43.60;20.10;;;;;;;5.52;86.87;100867.61;210541;1292;141759;-70
2022/11/14 03:44:00;;;;;;;52.90;24.50;;;;;;;5.48;86.88;100863.33;210782;1292;141753;-71
2022/11/14 03:49:04;;;;;;;47.30;18.30;;;;;;;5.43;87.30;100856.48;209851;1289;142109;-69
2022/11/14 03:54:07;;;;;;;41.70;20.60;;;;;;;5.40;87.42;100849.91;210839;1295;142135;-69
2022/11/14 03:59:11;;;;;;;48.20;20.40;;;;;;;5.43;87.67;100855.05;209264;1295;141212;-69
2022/11/14 04:04:15;;;;;;;49.70;24.00;;;;;;;5.50;87.40;100850.54;207810;1293;140714;-69
2022/11/14 04:09:18;;;;;;;35.40;17.70;;;;;;;5.52;87.19;100839.44;210891;1292;152065;-69
2022/11/14 04:14:22;;;;;;;44.30;22.60;;;;;;;5.52;87.41;100835.55;210836;1292;141482;-69
2022/11/14 04:19:25;;;;;;;49.80;21.00;;;;;;;5.49;87.47;100833.58;211059;1292;140628;-69
2022/11/14 04:24:29;;;;;;;43.00;21.80;;;;;;;5.50;87.54;100824.74;210925;1293;141154;-69
2022/11/14 04:29:33;;;;;;;52.80;22.80;;;;;;;5.52;87.57;100822.36;210867;1295;140800;-70
2022/11/14 04:34:36;;;;;;;34.30;19.50;;;;;;;5.56;87.46;100819.39;210863;1295;141591;-69
2022/11/14 04:39:40;;;;;;;43.90;22.40;;;;;;;5.60;87.40;100820.13;210821;1285;140831;-69
2022/11/14 04:44:43;;;;;;;45.70;21.20;;;;;;;5.61;87.45;100831.16;211013;1292;142265;-69
2022/11/14 04:49:46;;;;;;;42.20;17.80;;;;;;;5.63;87.49;100818.22;211073;1294;141476;-69
2022/11/14 04:54:50;;;;;;;50.10;22.50;;;;;;;5.70;87.39;100824.78;208212;1295;140537;-69
2022/11/14 04:59:54;;;;;;;46.40;24.10;;;;;;;5.68;86.93;100827.88;207661;1289;141059;-69
2022/11/14 05:04:57;;;;;;;38.60;20.20;;;;;;;5.62;87.27;100830.52;207716;1282;140998;-68
2022/11/14 05:10:01;;;;;;;54.30;25.60;;;;;;;5.60;87.39;100829.35;207450;1291;155534;-69
2022/11/14 05:15:05;;;;;;;49.40;20.70;;;;;;;5.60;87.29;100830.58;207051;1288;290026;-69
2022/11/14 05:20:09;;;;;;;46.70;22.60;;;;;;;5.62;87.39;100830.63;207648;1286;143485;-69
2022/11/14 05:25:13;;;;;;;39.00;18.40;;;;;;;5.66;87.57;100817.84;207870;1293;142944;-68
2022/11/14 05:30:17;;;;;;;43.00;19.80;;;;;;;5.67;87.01;100815.78;208593;1288;141877;-69
2022/11/14 05:35:21;;;;;;;48.70;23.60;;;;;;;5.62;87.33;100816.34;210503;1290;142632;-69
2022/11/14 05:40:24;;;;;;;52.50;23.90;;;;;;;5.52;87.51;100814.73;210526;1292;141320;-69
2022/11/14 05:45:29;;;;;;;52.10;25.10;;;;;;;5.44;87.51;100823.29;208693;1296;141821;-69
2022/11/14 05:50:33;;;;;;;54.10;24.50;;;;;;;5.40;87.83;100826.52;209944;1288;141125;-69
2022/11/14 05:55:38;;;;;;;49.80;23.30;;;;;;;5.40;87.65;100824.20;210992;1290;141101;-70
2022/11/14 06:00:42;;;;;;;51.70;24.30;;;;;;;5.44;87.80;100827.11;210791;1301;143878;-70
2022/11/14 06:05:58;;;;;;;48.10;25.20;;;;;;;5.46;87.86;100826.25;210826;1292;141721;-70
2022/11/14 06:11:05;;;;;;;57.50;26.50;;;;;;;5.40;87.73;100832.26;211020;1296;142864;-70
2022/11/14 06:16:11;;;;;;;;;;;;;;;5.42;88.03;100835.95;210934;1296;141122;-70
2022/11/14 06:21:17;;;;;;;41.00;20.10;;;;;;;5.45;87.84;100844.34;211543;1281;127418;-71
2022/11/14 06:26:30;;;;;;;43.90;22.10;;;;;;;5.42;87.97;100845.27;210992;1297;141662;-70
2022/11/14 06:31:33;;;;;;;47.80;23.90;;;;;;;5.49;88.10;100845.10;210664;1289;140633;-70
2022/11/14 06:36:37;;;;;;;55.10;25.50;;;;;;;5.53;87.90;100843.50;210914;1282;140405;-69
2022/11/14 06:41:41;;;;;;;52.10;24.30;;;;;;;5.51;87.93;100839.33;211011;1293;141747;-70
2022/11/14 06:46:44;;;;;;;51.50;23.60;;;;;;;5.51;87.77;100837.44;210798;1290;141222;-70
2022/11/14 06:51:47;;;;;;;44.00;20.30;;;;;;;5.52;88.06;100835.67;208086;1290;140545;-69
2022/11/14 06:56:51;;;;;;;57.90;26.10;;;;;;;5.55;88.10;100834.47;207691;1291;139428;-69
2022/11/14 07:01:57;;;;;;;50.40;26.60;;;;;;;5.62;88.15;100838.95;209818;1297;141385;-69
2022/11/14 07:07:01;;;;;;;57.70;24.90;;;;;;;5.63;88.14;100837.92;209861;1283;142523;-70
2022/11/14 07:12:07;;;;;;;55.70;27.20;;;;;;;5.62;88.05;100830.70;208278;1291;141779;-69
2022/11/14 07:17:11;;;;;;;52.90;25.30;;;;;;;5.59;87.73;100836.30;210264;1295;141093;-70
2022/11/14 07:22:15;;;;;;;55.40;27.10;;;;;;;5.61;87.88;100829.08;211124;1288;141646;-69
2022/11/14 07:27:19;;;;;;;42.70;21.70;;;;;;;5.69;87.84;100824.73;210139;1292;140477;-70
2022/11/14 07:32:23;;;;;;;40.40;22.00;;;;;;;5.75;87.66;100821.62;210956;1292;141105;-69
2022/11/14 07:37:27;;;;;;;57.60;25.70;;;;;;;5.78;87.65;100820.94;210705;1284;140332;-70
2022/11/14 07:42:30;;;;;;;45.30;24.20;;;;;;;5.78;87.54;100824.67;208874;1282;141321;-70
2022/11/14 07:47:34;;;;;;;46.90;23.00;;;;;;;5.77;87.38;100821.38;207743;1298;141385;-69
2022/11/14 07:52:38;;;;;;;49.30;23.30;;;;;;;5.74;87.39;100817.39;210839;1290;140216;-69
2022/11/14 07:57:42;;;;;;;43.80;21.50;;;;;;;5.69;87.33;100818.34;210861;1287;141976;-69
2022/11/14 08:02:51;;;;;;;50.80;25.00;;;;;;;5.67;87.08;100825.47;210892;1292;249609;-69
2022/11/14 08:07:55;;;;;;;38.50;22.10;;;;;;;5.58;87.45;100826.55;210791;1293;140747;-69
2022/11/14 08:13:01;;;;;;;48.40;23.60;;;;;;;5.55;87.41;100812.02;210964;1290;142128;-68
2022/11/14 08:18:24;;;;;;;48.20;23.70;;;;;;;5.59;87.63;100809.85;210951;1281;140739;-69
2022/11/14 08:23:28;;;;;;;48.20;21.70;;;;;;;5.69;87.67;100806.98;210931;1292;152570;-69
2022/11/14 08:28:34;;;;;;;42.40;21.20;;;;;;;5.72;87.56;100805.17;210901;1296;140957;-69
2022/11/14 08:33:38;;;;;;;41.60;19.30;;;;;;;5.74;87.58;100802.61;210882;1292;140472;-69
2022/11/14 08:38:42;;;;;;;56.60;22.40;;;;;;;5.73;87.55;100794.11;210827;1290;141237;-69
2022/11/14 08:43:45;;;;;;;46.20;23.30;;;;;;;5.74;87.44;100791.57;210985;1285;141196;-68
2022/11/14 08:48:49;;;;;;;51.50;25.80;;;;;;;5.67;87.18;100796.77;211016;1289;141378;-69
2022/11/14 08:53:52;;;;;;;50.80;25.00;;;;;;;5.72;87.70;100791.08;210817;1292;141707;-69
2022/11/14 08:58:57;;;;;;;45.20;23.30;;;;;;;5.85;87.44;100793.48;209058;1291;141291;-69
2022/11/14 09:04:01;;;;;;;40.40;22.10;;;;;;;5.93;87.33;100787.76;208352;1295;141028;-69
2022/11/14 09:09:05;;;;;;;46.30;22.50;;;;;;;5.92;87.05;100782.97;211090;1282;140363;-69
2022/11/14 09:14:09;;;;;;;37.90;20.70;;;;;;;5.89;87.23;100775.94;208891;1289;223779;-68
2022/11/14 09:19:13;;;;;;;42.50;21.10;;;;;;;5.96;87.01;100774.77;208811;1295;140650;-69
2022/11/14 09:24:16;;;;;;;50.80;25.50;;;;;;;5.97;87.33;100766.69;210828;1292;140640;-69
2022/11/14 09:29:20;;;;;;;43.60;22.50;;;;;;;6.05;87.11;100767.71;209909;1291;141476;-68
2022/11/14 09:34:24;;;;;;;45.30;23.00;;;;;;;6.17;87.05;100765.48;210889;1292;142126;-69
2022/11/14 09:39:28;;;;;;;37.50;22.20;;;;;;;6.37;87.61;100767.04;210912;1291;141596;-69
2022/11/14 09:44:54;;;;;;;48.20;26.80;;;;;;;6.64;87.35;100762.00;210941;1285;141720;-69
2022/11/14 09:50:12;;;;;;;41.40;24.80;;;;;;;6.75;86.30;100766.04;210894;1275;141214;-69
2022/11/14 09:55:20;;;;;;;45.20;26.20;;;;;;;6.71;86.40;100760.92;211030;1292;141615;-69
2022/11/14 10:00:50;;;;;;;49.40;25.40;;;;;;;6.77;86.33;100752.50;210533;1292;140968;-69
2022/11/14 10:06:02;;;;;;;55.10;25.10;;;;;;;6.90;86.40;100745.97;207917;1289;141564;-69
2022/11/14 10:11:23;;;;;;;46.80;26.10;;;;;;;6.98;86.17;100732.95;208021;1283;140910;-68
2022/11/14 10:16:30;;;;;;;45.80;26.30;;;;;;;7.10;86.25;100734.48;210996;1289;139952;-69
2022/11/14 10:21:39;;;;;;;41.20;22.50;;;;;;;7.29;86.12;100728.77;210906;1289;140810;-68
2022/11/14 10:27:05;;;;;;;39.80;21.90;;;;;;;7.32;85.21;100723.77;211002;1285;141344;-69
2022/11/14 10:32:33;;;;;;;38.80;22.70;;;;;;;7.20;85.18;100722.98;211012;1289;142916;-69
2022/11/14 10:37:40;;;;;;;39.00;25.10;;;;;;;7.19;84.83;100712.52;210702;1285;141040;-69
2022/11/14 10:42:50;;;;;;;47.80;24.00;;;;;;;7.12;84.79;100706.85;208142;1291;141554;-69
2022/11/14 10:48:01;;;;;;;45.10;22.60;;;;;;;7.15;85.00;100701.45;209285;1291;140470;-69
2022/11/14 10:53:18;;;;;;;38.90;20.30;;;;;;;7.21;84.73;100688.86;211093;1289;141373;-69
2022/11/14 10:58:23;;;;;;;43.20;25.10;;;;;;;7.26;84.56;100689.61;211024;1289;142324;-69
2022/11/14 11:03:45;;;;;;;37.30;18.60;;;;;;;7.39;84.89;100679.73;210603;1289;153513;-69
2022/11/14 11:14:17;;;;;;;39.00;18.50;;;;;;;7.79;84.77;100666.33;208419;1275;142497;-69
2022/11/14 11:19:24;;;;;;;41.20;25.00;;;;;;;7.86;84.34;100660.41;211041;1288;141733;-70
2022/11/14 11:24:34;;;;;;;38.90;23.20;;;;;;;7.95;83.95;100647.77;209884;1285;141834;-69
2022/11/14 11:29:38;;;;;;;34.50;19.60;;;;;;;7.93;83.87;100644.70;209185;1285;140080;-68
2022/11/14 11:34:41;;;;;;;48.50;25.50;;;;;;;7.86;83.61;100641.19;210286;1291;141444;-69
2022/11/14 11:39:52;;;;;;;36.30;19.00;;;;;;;7.71;82.95;100633.44;211056;1291;140935;-69
2022/11/14 11:45:04;;;;;;;49.50;21.40;;;;;;;7.55;82.86;100631.30;210552;1292;245094;-70
2022/11/14 11:50:15;;;;;;;47.30;26.20;;;;;;;7.43;83.17;100635.15;210815;1292;140900;-70
2022/11/14 11:55:48;;;;;;;43.00;23.70;;;;;;;7.31;83.15;100627.64;210963;1297;141336;-69
2022/11/14 12:00:55;;;;;;;44.80;24.10;;;;;;;7.15;83.29;100622.03;210810;1291;140322;-70
2022/11/14 12:06:14;;;;;;;51.30;28.30;;;;;;;7.20;83.52;100618.00;210961;1292;141575;-69
2022/11/14 12:11:23;;;;;;;45.30;23.00;;;;;;;7.26;83.71;100610.95;211057;1289;142850;-68
2022/11/14 12:16:35;;;;;;;54.40;28.20;;;;;;;7.36;83.74;100611.55;210988;1292;140714;-69
2022/11/14 12:22:21;;;;;;;53.70;25.20;;;;;;;7.40;83.28;100612.11;211064;1290;141057;-68
2022/11/14 12:27:50;;;;;;;46.90;28.90;;;;;;;7.38;83.33;100602.96;211086;1292;139840;-69
2022/11/14 12:33:20;;;;;;;51.90;25.30;;;;;;;7.42;83.63;100600.14;210838;1283;141630;-69
2022/11/14 12:38:29;;;;;;;44.10;23.60;;;;;;;7.37;83.05;100598.67;210804;1287;140638;-69
2022/11/14 12:43:34;;;;;;;44.10;24.50;;;;;;;7.17;82.48;100598.60;210824;1283;141086;-69
2022/11/14 12:48:45;;;;;;;36.30;21.00;;;;;;;6.86;82.64;100604.10;210968;1292;140733;-69
2022/11/14 12:53:48;;;;;;;40.60;21.40;;;;;;;6.75;82.95;100597.23;210969;1292;224326;-69
2022/11/14 12:58:58;;;;;;;46.70;23.50;;;;;;;6.71;83.61;100591.94;210581;1289;141168;-69
2022/11/14 13:04:08;;;;;;;45.80;26.00;;;;;;;6.71;83.44;100590.48;211105;1290;142383;-70
2022/11/14 13:09:32;;;;;;;43.50;22.60;;;;;;;6.65;83.52;100589.85;210901;1289;140850;-69
2022/11/14 13:26:09;;;;;;;40.90;25.70;;;;;;;6.72;83.82;100566.52;209100;1290;141760;-69
2022/11/14 13:31:20;;;;;;;42.50;22.80;;;;;;;6.64;83.62;100561.23;210614;1285;140956;-71
2022/11/14 13:36:40;;;;;;;44.50;25.70;;;;;;;6.63;83.83;100559.50;210245;1282;141149;-69
2022/11/14 13:42:04;;;;;;;51.50;28.30;;;;;;;6.58;83.98;100557.20;207681;1295;210922;-68
2022/11/14 13:47:19;;;;;;;41.00;25.40;;;;;;;6.48;83.95;100553.48;207774;1290;140436;-68
2022/11/14 13:52:30;;;;;;;48.90;26.60;;;;;;;6.38;84.23;100551.67;211006;1289;140825;-69
2022/11/14 13:57:56;;;;;;;42.50;24.30;;;;;;;6.40;84.52;100549.66;210787;1289;141847;-69
2022/11/14 14:03:18;;;;;;;41.90;24.30;;;;;;;6.35;84.39;100539.56;211023;1297;140929;-70
2022/11/14 14:08:25;;;;;;;32.10;19.00;;;;;;;6.34;84.50;100545.64;210886;1289;140082;-70
2022/11/14 14:14:00;;;;;;;44.10;23.30;;;;;;;6.39;84.51;100545.41;211102;1283;140794;-70
2022/11/14 14:19:20;;;;;;;39.80;23.70;;;;;;;6.35;84.53;100537.86;210978;1292;140948;-72
2022/11/14 14:24:35;;;;;;;40.20;24.70;;;;;;;6.27;84.37;100530.96;210915;1289;141736;-71
2022/11/14 14:29:52;;;;;;;40.40;22.10;;;;;;;6.18;84.42;100518.97;211011;1292;142718;-69
2022/11/14 14:34:58;;;;;;;39.70;23.60;;;;;;;6.07;84.49;100513.36;211090;1282;140791;-65
2022/11/14 14:40:07;;;;;;;49.30;25.00;;;;;;;6.04;84.79;100507.21;210645;1291;140903;-68
2022/11/14 14:45:17;;;;;;;51.20;23.70;;;;;;;5.99;85.03;100508.80;210675;1292;141876;-71
2022/11/14 14:50:24;;;;;;;58.00;26.20;;;;;;;5.97;84.92;100501.71;210792;1289;141086;-69
2022/11/14 14:55:33;;;;;;;51.40;26.50;;;;;;;5.91;84.89;100505.70;210569;1292;140767;-69
2022/11/14 15:00:37;;;;;;;50.20;24.30;;;;;;;5.92;85.33;100506.86;210657;1291;142306;-69
2022/11/14 15:05:44;;;;;;;52.40;27.10;;;;;;;5.94;85.23;100505.42;210803;1289;224307;-69
2022/11/14 15:10:56;;;;;;;53.60;26.40;;;;;;;5.89;84.96;100501.73;210859;1292;225280;-69
2022/11/14 15:16:04;;;;;;;53.20;24.40;;;;;;;5.82;85.03;100494.63;210823;1292;139962;-71
2022/11/14 15:21:26;;;;;;;48.10;23.70;;;;;;;5.70;85.23;100488.34;210661;1284;140605;-70
2022/11/14 15:26:34;;;;;;;54.90;27.00;;;;;;;5.63;85.30;100480.71;210600;1289;141780;-69
2022/11/14 15:31:49;;;;;;;47.40;23.10;;;;;;;5.55;85.51;100470.10;210546;1291;141316;-68
2022/11/14 15:37:12;;;;;;;42.30;20.20;;;;;;;5.47;85.40;100464.83;210522;1286;140397;-69
2022/11/14 15:42:35;;;;;;;44.80;20.50;;;;;;;5.37;85.72;100464.64;210763;1292;142322;-70
2022/11/14 15:47:40;;;;;;;38.30;24.50;;;;;;;5.30;85.58;100455.14;210559;1291;145529;-65
2022/11/14 15:52:56;;;;;;;38.20;25.40;;;;;;;5.21;85.89;100445.21;210620;1292;141342;-70
2022/11/14 15:58:01;;;;;;;45.90;23.50;;;;;;;5.11;85.94;100443.83;210655;1292;140613;-68
2022/11/14 16:03:26;;;;;;;36.90;19.90;;;;;;;5.00;86.27;100434.35;210877;1292;140880;-69
2022/11/14 16:08:32;;;;;;;48.20;23.00;;;;;;;4.96;85.97;100430.55;208239;1278;141292;-68
2022/11/14 16:13:37;;;;;;;55.90;28.30;;;;;;;4.90;86.72;100427.42;210349;1276;160161;-69
2022/11/14 16:18:43;;;;;;;47.20;25.40;;;;;;;4.83;86.29;100423.71;210877;1292;141138;-69
2022/11/14 16:23:49;;;;;;;55.50;24.80;;;;;;;4.82;86.81;100423.85;210802;1292;141433;-69
2022/11/14 16:28:52;;;;;;;49.90;27.40;;;;;;;4.80;86.86;100421.59;210839;1292;143357;-69
2022/11/14 16:33:57;;;;;;;49.90;26.30;;;;;;;4.79;86.64;100415.59;210890;1292;141490;-70
2022/11/14 16:39:04;;;;;;;53.10;29.40;;;;;;;4.77;86.91;100412.08;210820;1290;140628;-69
2022/11/14 16:44:14;;;;;;;43.50;25.10;;;;;;;4.78;86.92;100406.33;210690;1292;142336;-69
2022/11/14 16:49:21;;;;;;;49.40;26.60;;;;;;;4.77;86.79;100405.57;210666;1297;141763;-69
2022/11/14 16:54:25;;;;;;;49.30;26.90;;;;;;;4.75;86.96;100401.07;210687;1292;140727;-69
2022/11/14 16:59:29;;;;;;;48.80;29.30;;;;;;;4.74;87.42;100402.92;210569;1292;141319;-70
2022/11/14 17:04:32;;;;;;;50.10;25.10;;;;;;;4.73;87.09;100393.92;210832;1292;140357;-69
2022/11/14 17:09:36;;;;;;;52.80;27.90;;;;;;;4.74;87.17;100394.04;210431;1291;140906;-71
2022/11/14 17:14:42;;;;;;;55.20;30.10;;;;;;;4.78;87.18;100390.02;208352;1292;3058577;-71
2022/11/14 17:19:46;;;;;;;53.20;27.30;;;;;;;4.80;87.41;100386.04;210655;1288;140540;-70
2022/11/14 17:24:51;;;;;;;56.80;27.30;;;;;;;4.80;87.17;100376.45;210570;1292;142111;-70
2022/11/14 17:29:55;;;;;;;55.00;28.50;;;;;;;4.81;87.28;100381.66;210701;1293;142232;-69
2022/11/14 17:34:59;;;;;;;55.80;27.70;;;;;;;4.80;87.72;100377.61;210791;1292;141379;-73
2022/11/14 17:40:04;;;;;;;63.70;30.20;;;;;;;4.78;87.70;100380.30;210837;1299;142167;-73
2022/11/14 17:45:08;;;;;;;60.50;30.40;;;;;;;4.74;87.78;100381.77;208312;1285;141217;-74
2022/11/14 17:50:13;;;;;;;51.80;30.50;;;;;;;4.70;87.57;100380.18;210751;1299;142474;-70
2022/11/14 17:55:18;;;;;;;68.90;34.10;;;;;;;4.65;87.91;100374.22;210598;1292;142679;-70
2022/11/14 18:00:22;;;;;;;44.10;25.60;;;;;;;4.64;88.04;100372.34;209824;1292;142025;-70
2022/11/14 18:05:26;;;;;;;75.50;35.50;;;;;;;4.65;87.87;100369.67;210001;1288;141845;-69
2022/11/14 18:10:31;;;;;;;56.80;30.10;;;;;;;4.66;87.91;100368.59;210892;1285;141489;-69
2022/11/14 18:15:37;;;;;;;59.50;27.00;;;;;;;4.63;88.14;100366.84;210714;1289;235360;-71
2022/11/14 18:20:42;;;;;;;53.90;26.10;;;;;;;4.62;87.96;100354.39;210671;1293;142431;-69
2022/11/14 18:25:47;;;;;;;59.50;29.80;;;;;;;4.63;88.32;100353.67;210713;1291;142183;-69
2022/11/14 18:30:55;;;;;;;71.60;31.30;;;;;;;4.61;88.37;100353.27;210140;1290;231681;-69
2022/11/14 18:36:00;;;;;;;80.40;37.40;;;;;;;4.61;88.41;100347.02;210472;1292;140736;-69
2022/11/14 18:41:08;;;;;;;69.00;32.10;;;;;;;4.59;88.47;100344.06;210658;1288;140779;-70
2022/11/14 18:46:17;;;;;;;69.80;31.60;;;;;;;4.62;88.76;100342.36;210689;1290;249804;-70
2022/11/14 18:51:26;;;;;;;74.60;30.00;;;;;;;4.62;88.67;100335.63;210596;1298;141087;-69
2022/11/14 18:56:30;;;;;;;71.80;34.00;;;;;;;4.65;88.83;100330.26;210769;1292;140845;-70
2022/11/14 19:01:34;;;;;;;65.40;29.90;;;;;;;4.66;88.81;100334.02;210839;1292;141511;-72
2022/11/14 19:06:39;;;;;;;74.10;35.10;;;;;;;4.67;88.80;100329.64;210610;1292;143245;-70
2022/11/14 19:17:06;;;;;;;72.00;34.60;;;;;;;4.74;88.66;100320.88;210003;1296;141071;-70
2022/11/14 19:22:10;;;;;;;68.70;32.80;;;;;;;4.75;88.75;100318.67;209859;1293;141325;-70
2022/11/14 19:27:13;;;;;;;66.60;36.30;;;;;;;4.77;88.74;100322.27;209696;1285;141064;-70
2022/11/14 19:32:17;;;;;;;60.30;33.20;;;;;;;4.79;88.86;100323.31;210472;1292;141298;-70
2022/11/14 19:37:21;;;;;;;58.30;30.00;;;;;;;4.76;88.59;100315.55;210929;1297;141832;-70
2022/11/14 19:42:25;;;;;;;68.60;32.60;;;;;;;4.75;88.87;100314.61;209919;1283;140869;-69
2022/11/14 19:47:28;;;;;;;71.70;36.10;;;;;;;4.77;88.77;100314.39;209750;1284;140668;-70
2022/11/14 19:52:32;;;;;;;61.00;31.80;;;;;;;4.84;88.78;100312.30;210751;1292;140103;-70
2022/11/14 19:57:36;;;;;;;70.40;34.10;;;;;;;4.89;88.62;100304.66;210102;1283;140719;-70
2022/11/14 20:02:44;;;;;;;67.80;33.80;;;;;;;4.87;88.44;100302.02;210100;1291;141010;-71
2022/11/14 20:07:48;;;;;;;;;;;;;;;4.78;88.72;100292.95;210825;1291;140833;-71
2022/11/14 20:12:51;;;;;;;62.30;30.60;;;;;;;4.67;89.09;100293.13;211443;1290;126611;-70
2022/11/14 20:17:56;;;;;;;56.90;32.50;;;;;;;4.65;88.95;100290.21;210791;1298;141633;-70
2022/11/14 20:22:59;;;;;;;55.10;29.90;;;;;;;4.69;89.07;100287.86;210835;1285;140476;-69
2022/11/14 20:28:07;;;;;;;53.20;28.10;;;;;;;4.71;89.03;100281.43;210822;1296;141503;-69
2022/11/14 20:33:11;;;;;;;71.80;32.90;;;;;;;4.75;89.24;100276.56;210734;1297;142315;-68
2022/11/14 20:38:15;;;;;;;51.00;26.60;;;;;;;4.77;88.90;100277.24;210809;1294;142020;-68
2022/11/14 20:43:19;;;;;;;72.60;34.70;;;;;;;4.81;89.00;100272.87;210851;1299;140299;-69
2022/11/14 20:48:23;;;;;;;60.10;32.80;;;;;;;4.85;89.40;100271.80;210824;1292;141534;-71
2022/11/14 20:53:26;;;;;;;58.10;31.40;;;;;;;4.91;88.91;100267.91;210648;1291;141003;-70
2022/11/14 20:58:31;;;;;;;63.90;36.40;;;;;;;4.91;88.95;100267.45;211051;1293;141492;-71
2022/11/14 21:03:35;;;;;;;53.40;26.10;;;;;;;4.96;89.02;100265.04;210745;1295;140020;-71
2022/11/14 21:08:40;;;;;;;60.00;30.70;;;;;;;4.94;88.60;100265.45;210733;1293;141675;-70
2022/11/14 21:13:56;;;;;;;71.10;35.80;;;;;;;4.95;88.99;100264.42;210955;1289;140494;-70
2022/11/14 21:19:01;;;;;;;71.50;32.60;;;;;;;5.03;89.01;100261.68;211050;1292;140063;-70
2022/11/14 21:24:05;;;;;;;59.90;32.00;;;;;;;5.04;88.97;100261.64;208785;1295;142642;-69
2022/11/14 21:29:13;;;;;;;60.20;27.80;;;;;;;5.06;88.73;100256.39;210739;1292;141526;-70
2022/11/14 21:34:19;;;;;;;65.10;33.70;;;;;;;5.02;88.89;100246.30;210375;1299;141146;-69
2022/11/14 21:39:23;;;;;;;60.40;30.40;;;;;;;4.95;88.67;100232.92;210880;1296;141684;-70
2022/11/14 21:44:27;;;;;;;46.20;25.00;;;;;;;4.84;88.69;100227.73;209476;1293;140506;-69
2022/11/14 21:49:30;;;;;;;69.90;32.50;;;;;;;4.74;89.02;100223.20;210977;1295;141197;-69
2022/11/14 21:54:34;;;;;;;77.40;32.90;;;;;;;4.68;89.14;100219.77;210981;1295;142328;-70
2022/11/14 21:59:45;;;;;;;66.40;35.90;;;;;;;4.75;89.27;100215.42;210752;1296;141591;-69
2022/11/14 22:04:48;;;;;;;64.10;29.80;;;;;;;4.82;89.17;100211.61;210573;1289;141070;-68
2022/11/14 22:09:52;;;;;;;66.80;32.40;;;;;;;4.79;89.01;100208.68;211104;1289;141647;-69
2022/11/14 22:14:56;;;;;;;51.20;28.20;;;;;;;4.76;89.21;100204.98;211020;1289;140786;-68
2022/11/14 22:20:00;;;;;;;69.40;30.60;;;;;;;4.82;88.99;100198.85;210800;1292;140226;-68
2022/11/14 22:25:04;;;;;;;48.30;23.10;;;;;;;4.82;89.28;100195.24;210962;1285;142330;-69
2022/11/14 22:30:08;;;;;;;58.50;29.90;;;;;;;4.83;89.23;100195.04;210888;1291;140797;-68
2022/11/14 22:35:12;;;;;;;70.00;29.50;;;;;;;4.86;89.03;100194.43;210773;1290;141173;-68
2022/11/14 22:40:15;;;;;;;65.40;30.90;;;;;;;4.85;88.96;100197.75;210585;1292;140678;-68
2022/11/14 22:45:19;;;;;;;64.10;33.30;;;;;;;4.84;89.12;100192.54;210709;1289;142417;-68
2022/11/14 22:50:22;;;;;;;56.20;29.40;;;;;;;4.79;89.02;100187.69;210306;1296;140514;-72
2022/11/14 22:55:25;;;;;;;60.70;29.20;;;;;;;4.80;89.54;100187.62;210596;1294;140533;-71
2022/11/14 23:00:29;;;;;;;50.80;25.70;;;;;;;4.79;89.15;100178.79;210566;1292;141912;-71
2022/11/14 23:05:36;;;;;;;51.80;25.30;;;;;;;4.82;89.06;100169.92;210606;1295;140468;-72
2022/11/14 23:10:40;;;;;;;;;;;;;;;4.81;89.06;100167.36;210879;1295;140945;-71
2022/11/14 23:15:47;;;;;;;59.10;30.90;;;;;;;4.79;89.36;100166.10;211507;1292;127437;-70
2022/11/14 23:20:50;;;;;;;49.30;25.90;;;;;;;4.82;89.27;100162.02;210716;1283;141751;-69